Time;durP1;ratioP1;P1;durP2;ratioP2;P2;SDS_P1;SDS_P2;PMS_P1;PMS_P2;Temp;Humidity;BMP_temperature;BMP_pressure;BME280_temperature;BME280_humidity;BME280_pressure;Samples;Min_cycle;Max_cycle;Signal;HPM_P1;HPM_P2
2022/02/02 00:00:20;;;;;;;25.83;6.70;;;;;;;7.84;87.49;100863.97;5100328;28;20083;-84
2022/02/02 00:02:50;;;;;;;28.10;7.03;;;;;;;7.78;88.81;100874.09;5101306;28;20055;-82
2022/02/02 00:05:23;;;;;;;38.50;7.10;;;;;;;7.57;90.53;100879.34;5119909;28;20135;-83
2022/02/02 00:07:56;;;;;;;33.28;7.25;;;;;;;7.52;89.54;100897.16;5121399;28;20548;-82
2022/02/02 00:13:07;;;;;;;27.25;6.75;;;;;;;7.18;90.76;100875.72;5122341;28;20108;-82
2022/02/02 00:15:45;;;;;;;26.60;6.15;;;;;;;7.16;89.73;100865.44;5123444;28;20433;-82
2022/02/02 00:18:37;;;;;;;19.20;6.03;;;;;;;7.14;90.57;100876.94;5123976;28;20104;-83
2022/02/02 00:21:05;;;;;;;35.92;7.05;;;;;;;7.17;90.77;100866.28;5124714;28;20051;-82
2022/02/02 00:23:38;;;;;;;27.23;7.07;;;;;;;7.15;91.32;100881.19;5125010;28;20047;-81
2022/02/02 00:26:09;;;;;;;33.67;6.85;;;;;;;7.12;91.20;100874.47;5125168;28;20115;-82
2022/02/02 00:28:40;;;;;;;32.15;7.47;;;;;;;7.08;90.18;100882.69;5125606;28;20462;-81
2022/02/02 00:31:11;;;;;;;23.10;6.35;;;;;;;7.04;90.65;100904.69;5125506;28;20054;-81
2022/02/02 00:33:42;;;;;;;32.25;6.38;;;;;;;7.04;90.87;100891.69;5125833;28;20043;-82
2022/02/02 00:36:13;;;;;;;30.40;6.43;;;;;;;6.98;91.24;100887.81;5133267;28;20055;-81
2022/02/02 00:38:41;;;;;;;36.03;9.15;;;;;;;7.06;91.14;100895.00;5130758;28;20059;-81
2022/02/02 00:41:08;;;;;;;32.40;7.00;;;;;;;7.05;91.23;100901.97;5122567;28;20052;-81
2022/02/02 00:43:35;;;;;;;33.63;7.53;;;;;;;7.04;91.02;100908.13;5123229;28;20126;-81
2022/02/02 00:46:01;;;;;;;34.80;7.68;;;;;;;7.08;90.28;100911.31;5122745;28;20058;-82
2022/02/02 00:48:32;;;;;;;36.78;7.05;;;;;;;7.07;90.64;100913.06;5122741;28;20134;-80
2022/02/02 00:50:59;;;;;;;35.13;7.93;;;;;;;7.15;89.45;100897.63;5122337;28;20100;-80
2022/02/02 00:53:25;;;;;;;41.63;9.02;;;;;;;7.12;89.67;100879.66;5123185;28;20063;-81
2022/02/02 00:55:54;;;;;;;40.70;8.63;;;;;;;7.28;88.90;100893.06;5122420;28;20090;-81
2022/02/02 00:58:21;;;;;;;31.25;7.07;;;;;;;7.30;88.50;100891.16;5123727;28;20455;-83
2022/02/02 01:00:48;;;;;;;35.60;8.65;;;;;;;7.24;88.91;100890.84;5124741;28;20052;-82
2022/02/02 01:03:15;;;;;;;31.65;7.78;;;;;;;7.18;88.70;100899.16;5123158;28;20138;-83
2022/02/02 01:05:41;;;;;;;36.67;8.38;;;;;;;7.24;89.26;100916.88;5122509;28;20073;-83
2022/02/02 01:08:39;;;;;;;31.63;8.02;;;;;;;7.16;89.93;100911.47;5123134;28;20577;-83
2022/02/02 01:11:29;;;;;;;37.28;8.23;;;;;;;7.19;89.03;100906.84;5124638;28;20394;-84
2022/02/02 01:14:57;;;;;;;30.30;7.95;;;;;;;7.21;88.81;100911.91;5125032;28;20050;-83
2022/02/02 01:19:58;;;;;;;33.40;7.43;;;;;;;7.17;89.18;100905.31;5121669;28;20070;-81
2022/02/02 01:27:46;;;;;;;37.05;8.05;;;;;;;7.14;88.49;100900.34;5125004;28;20059;-82
2022/02/02 01:27:58;;;;;;;35.88;8.75;;;;;;;7.12;88.52;100904.88;5123699;28;20079;-81
2022/02/02 01:30:25;;;;;;;38.05;8.10;;;;;;;7.20;88.25;100910.25;5123109;28;20497;-81
2022/02/02 01:32:51;;;;;;;43.45;8.57;;;;;;;7.15;88.97;100915.03;5122828;28;20052;-80
2022/02/02 01:35:21;;;;;;;38.75;8.25;;;;;;;7.15;88.65;100928.03;5120632;28;20050;-80
2022/02/02 01:37:52;;;;;;;42.28;8.07;;;;;;;7.18;88.87;100919.97;5121155;28;20071;-80
2022/02/02 01:40:26;;;;;;;40.95;9.13;;;;;;;7.18;89.03;100907.78;5120445;28;20066;-80
2022/02/02 01:43:00;;;;;;;31.75;7.57;;;;;;;7.25;88.43;100924.53;5120169;28;20130;-80
2022/02/02 01:45:35;;;;;;;42.65;10.27;;;;;;;7.13;88.92;100909.13;5119933;28;20048;-80
2022/02/02 01:48:14;;;;;;;40.13;9.18;;;;;;;7.21;88.31;100928.34;5120097;28;20051;-81
2022/02/02 01:50:56;;;;;;;34.70;6.93;;;;;;;7.27;88.25;100934.84;5120041;28;20054;-80
2022/02/02 01:53:32;;;;;;;38.47;8.43;;;;;;;7.23;88.08;100923.84;5121347;28;20490;-80
2022/02/02 01:56:00;;;;;;;35.00;8.00;;;;;;;7.24;88.49;100929.88;5120574;28;20044;-81
2022/02/02 02:01:15;;;;;;;35.05;7.22;;;;;;;7.20;88.77;100924.09;5121370;28;20059;-80
2022/02/02 02:03:42;;;;;;;31.42;6.75;;;;;;;7.21;88.49;100924.94;5121359;28;20066;-80
2022/02/02 02:06:09;;;;;;;37.75;8.55;;;;;;;7.18;89.06;100940.78;5121234;28;20401;-80
2022/02/02 02:08:37;;;;;;;36.90;7.65;;;;;;;7.14;89.00;100947.19;5121075;28;20130;-81
2022/02/02 02:11:06;;;;;;;34.08;6.90;;;;;;;7.12;88.75;100936.91;5121667;28;20555;-80
2022/02/02 02:14:03;;;;;;;36.38;8.48;;;;;;;7.15;88.64;100951.44;5120393;28;20142;-81
2022/02/02 02:16:31;;;;;;;30.60;6.78;;;;;;;7.19;88.04;100947.66;5122171;28;20051;-82
2022/02/02 02:18:59;;;;;;;33.00;7.38;;;;;;;7.18;88.38;100941.63;5121695;28;20047;-82
2022/02/02 02:21:25;;;;;;;30.08;7.95;;;;;;;7.19;88.37;100937.25;5121458;28;20052;-80
2022/02/02 02:23:53;;;;;;;39.30;7.85;;;;;;;7.19;88.51;100942.44;5122511;28;20051;-81
2022/02/02 02:26:25;;;;;;;31.05;7.13;;;;;;;7.16;88.60;100948.72;5124606;28;20075;-81
2022/02/02 02:29:12;;;;;;;37.42;7.32;;;;;;;7.14;88.59;100942.81;5123692;28;20482;-80
2022/02/02 02:31:50;;;;;;;28.45;7.07;;;;;;;7.06;89.29;100966.06;5122231;28;20066;-81
2022/02/02 02:34:33;;;;;;;35.67;7.00;;;;;;;7.09;89.23;100972.81;5122316;28;20486;-82
2022/02/02 02:37:26;;;;;;;38.83;6.88;;;;;;;7.04;89.14;100960.16;5122631;28;20047;-82
2022/02/02 02:40:02;;;;;;;41.13;8.60;;;;;;;7.12;89.02;100962.13;5122323;28;20101;-80
2022/02/02 02:56:16;;;;;;;33.65;6.68;;;;;;;7.08;89.12;100956.38;5120212;28;20055;-80
2022/02/02 02:58:57;;;;;;;36.63;7.82;;;;;;;7.13;88.56;100966.38;5119569;28;20089;-80
2022/02/02 03:01:46;;;;;;;38.72;8.43;;;;;;;7.06;89.37;100963.47;5120012;28;20126;-81
2022/02/02 03:32:05;;;;;;;37.70;7.40;;;;;;;7.17;87.31;100966.00;5122894;28;20065;-83
2022/02/02 03:34:53;;;;;;;39.72;7.57;;;;;;;7.23;87.31;100955.09;5122081;28;20078;-82
2022/02/02 03:56:40;;;;;;;35.05;7.75;;;;;;;7.12;87.34;100965.53;5125440;28;20051;-82
2022/02/02 03:59:27;;;;;;;38.75;6.97;;;;;;;7.16;87.39;100990.38;5126069;28;20048;-82
2022/02/02 04:05:06;;;;;;;37.70;7.65;;;;;;;7.17;87.00;100981.59;5089867;28;20044;-82
2022/02/02 04:07:44;;;;;;;33.63;7.63;;;;;;;7.11;87.17;100968.28;5127733;28;20051;-83
2022/02/02 04:10:11;;;;;;;30.98;7.97;;;;;;;7.18;86.83;100991.06;5127674;28;20116;-83
2022/02/02 04:12:48;;;;;;;33.92;7.05;;;;;;;7.17;86.80;100991.19;5128412;28;20077;-83
2022/02/02 04:37:19;;;;;;;34.10;8.27;;;;;;;7.14;87.07;100997.47;5125263;28;20048;-83
2022/02/02 04:37:46;;;;;;;41.47;8.35;;;;;;;6.99;87.82;101020.38;5148716;22;20140;-81
2022/02/02 04:52:13;;;;;;;35.20;6.50;;;;;;;7.06;87.15;101033.72;5119279;28;20043;-83
2022/02/02 04:55:01;;;;;;;39.50;6.75;;;;;;;6.91;87.50;101011.53;5118486;28;20098;-84
2022/02/02 04:58:03;;;;;;;36.22;8.88;;;;;;;6.85;87.97;101012.03;5107818;28;20063;-81
2022/02/02 05:04:06;;;;;;;;;;;;;;;6.94;87.71;101019.91;5105335;28;20052;-84
2022/02/02 05:06:45;;;;;;;36.33;9.15;;;;;;;6.96;87.39;101027.59;5108819;28;19924;-85
2022/02/02 05:10:02;;;;;;;35.97;7.25;;;;;;;6.84;87.98;101025.97;5108822;28;20131;-85
2022/02/02 05:16:38;;;;;;;38.75;8.20;;;;;;;6.90;87.69;101036.72;5105913;28;20044;-84
2022/02/02 06:22:19;;;;;;;;;;;;;;;;;;;;;
2022/02/02 06:32:21;;;;;;;;;;;;;;;;;;;;;
2022/02/02 06:59:20;;;;;;;32.58;8.35;;;;;;;7.14;88.32;101152.78;4967424;28;20097;-82
2022/02/02 07:02:19;;;;;;;39.85;8.52;;;;;;;7.06;88.10;101137.81;4987160;28;20070;-79
2022/02/02 07:05:27;;;;;;;44.20;10.27;;;;;;;7.03;88.14;101142.44;5039198;28;20117;-82
2022/02/02 07:11:21;;;;;;;43.72;9.65;;;;;;;7.05;88.23;101154.38;5007161;28;20050;-80
2022/02/02 07:20:36;;;;;;;32.70;8.13;;;;;;;7.11;86.72;101158.25;5061821;28;20091;-81
2022/02/02 07:23:37;;;;;;;44.63;9.85;;;;;;;6.98;86.84;101153.19;5067539;28;20052;-82
2022/02/02 07:30:16;;;;;;;35.25;8.20;;;;;;;7.06;86.67;101171.63;5022952;28;20049;-82
2022/02/02 07:33:22;;;;;;;39.53;7.45;;;;;;;6.97;87.07;101180.97;4997658;28;20087;-79
2022/02/02 07:36:24;;;;;;;29.20;7.57;;;;;;;7.05;85.86;101189.97;5064646;28;20050;-81
2022/02/02 07:41:11;;;;;;;31.83;8.05;;;;;;;7.09;85.94;101183.59;5120028;27;20458;-79
2022/02/02 07:43:41;;;;;;;38.55;7.88;;;;;;;7.10;86.02;101193.00;5121150;28;20044;-83
2022/02/02 07:46:10;;;;;;;39.58;8.43;;;;;;;7.13;85.57;101197.97;5120399;28;20055;-82
2022/02/02 07:48:44;;;;;;;42.13;9.27;;;;;;;7.06;86.20;101189.84;5119136;28;20071;-83
2022/02/02 07:51:11;;;;;;;37.20;8.15;;;;;;;7.07;85.90;101193.28;5118413;28;20056;-81
2022/02/02 07:53:42;;;;;;;31.17;7.15;;;;;;;7.08;85.54;101198.38;5116398;28;20043;-80
2022/02/02 07:56:14;;;;;;;31.23;8.38;;;;;;;7.12;85.46;101201.53;5115768;28;20427;-80
2022/02/02 07:58:43;;;;;;;43.72;8.90;;;;;;;7.10;86.16;101199.06;5116341;28;20569;-80
2022/02/02 08:01:12;;;;;;;32.30;8.52;;;;;;;7.15;85.14;101209.94;5116672;28;20144;-81
2022/02/02 08:03:41;;;;;;;33.83;7.18;;;;;;;7.30;84.88;101220.94;5115645;28;20134;-80
2022/02/02 08:06:11;;;;;;;34.47;7.90;;;;;;;7.28;84.68;101233.22;5116777;28;20059;-81
2022/02/02 08:08:41;;;;;;;30.60;7.43;;;;;;;7.50;84.20;101228.00;5116889;28;20453;-81
2022/02/02 08:11:10;;;;;;;30.65;7.10;;;;;;;7.76;82.73;101232.91;5116549;28;20146;-80
2022/02/02 08:13:41;;;;;;;28.55;7.35;;;;;;;7.69;82.92;101232.56;5115911;28;20051;-82
2022/02/02 08:16:12;;;;;;;30.08;7.03;;;;;;;7.56;83.21;101235.31;5120015;28;20056;-82
2022/02/02 08:18:41;;;;;;;36.60;8.70;;;;;;;7.57;83.23;101236.97;5117541;28;20075;-82
2022/02/02 08:21:08;;;;;;;34.22;7.70;;;;;;;7.60;82.63;101247.13;5116303;28;20048;-83
2022/02/02 08:23:35;;;;;;;29.08;7.88;;;;;;;7.61;83.16;101240.97;5119703;28;20116;-83
2022/02/02 08:26:05;;;;;;;29.17;6.88;;;;;;;7.64;83.13;101250.31;5119351;28;20052;-81
2022/02/02 08:28:32;;;;;;;32.17;6.68;;;;;;;7.64;82.50;101253.75;5119214;28;20082;-83
2022/02/02 08:31:00;;;;;;;27.13;6.68;;;;;;;7.55;81.97;101262.31;5123200;28;20044;-83
2022/02/02 08:33:32;;;;;;;33.58;7.47;;;;;;;7.62;80.82;101268.69;5124059;28;20048;-83
2022/02/02 08:35:59;;;;;;;29.77;7.38;;;;;;;7.74;80.35;101264.28;5122940;28;20079;-83
2022/02/02 08:41:16;;;;;;;32.55;6.55;;;;;;;8.32;78.98;101273.47;5114922;28;20051;-82
2022/02/02 08:43:48;;;;;;;29.60;7.00;;;;;;;8.45;78.13;101278.50;5119923;28;20044;-82
2022/02/02 08:46:24;;;;;;;30.60;6.93;;;;;;;8.19;79.18;101272.78;5119379;28;20047;-83
2022/02/02 08:48:53;;;;;;;31.98;8.18;;;;;;;8.05;79.79;101282.66;5121171;28;20055;-83
2022/02/02 08:51:22;;;;;;;24.60;6.20;;;;;;;7.98;79.90;101282.34;5112831;28;20082;-83
2022/02/02 08:54:01;;;;;;;33.45;7.70;;;;;;;7.98;80.69;101285.78;5106785;28;20247;-82
2022/02/02 08:59:22;;;;;;;32.55;6.63;;;;;;;8.19;80.38;101303.22;5106682;28;20565;-82
2022/02/02 09:01:52;;;;;;;28.05;6.93;;;;;;;8.25;79.55;101311.38;5105133;28;20048;-81
2022/02/02 09:07:03;;;;;;;28.70;6.97;;;;;;;8.28;79.88;101318.13;5101843;28;20063;-81
2022/02/02 09:09:48;;;;;;;31.15;7.93;;;;;;;8.36;80.14;101315.75;5101798;28;20071;-81
2022/02/02 09:23:28;;;;;;;25.90;8.13;;;;;;;8.24;82.01;101317.56;5090530;28;20059;-81
2022/02/02 09:26:02;;;;;;;36.85;7.63;;;;;;;8.29;81.66;101328.44;5102919;28;20048;-81
2022/02/02 09:31:29;;;;;;;33.00;7.65;;;;;;;8.23;81.96;101334.16;5102849;28;20058;-80
2022/02/02 09:34:02;;;;;;;40.17;8.55;;;;;;;8.19;81.49;101317.09;5103720;28;20055;-81
2022/02/02 09:36:31;;;;;;;35.53;7.50;;;;;;;8.34;81.84;101338.53;5104323;28;20070;-82
2022/02/02 09:39:01;;;;;;;28.25;7.47;;;;;;;8.38;82.00;101328.69;5111993;28;20066;-81
2022/02/02 09:44:15;;;;;;;32.15;9.75;;;;;;;8.59;81.62;101322.53;5113677;28;20412;-81
2022/02/02 09:46:57;;;;;;;35.65;8.13;;;;;;;8.53;81.61;101311.75;5105886;28;20123;-81
2022/02/02 09:49:33;;;;;;;39.55;8.15;;;;;;;8.64;81.72;101325.56;5104766;28;20048;-82
2022/02/02 09:52:11;;;;;;;33.85;8.60;;;;;;;8.58;81.84;101320.03;5106539;28;20442;-82
2022/02/02 09:54:39;;;;;;;38.78;8.73;;;;;;;8.57;82.87;101327.03;5105031;28;20040;-83
2022/02/02 09:57:32;;;;;;;40.53;8.50;;;;;;;8.51;81.37;101316.28;5104483;28;20077;-81
2022/02/02 10:03:02;;;;;;;32.55;8.02;;;;;;;8.48;82.18;101334.81;5103028;28;20434;-83
2022/02/02 10:05:33;;;;;;;39.70;8.50;;;;;;;8.53;82.22;101333.44;5102885;28;20052;-81
2022/02/02 10:08:48;;;;;;;28.42;8.35;;;;;;;8.54;82.13;101342.94;5103849;28;20074;-82
2022/02/02 10:11:22;;;;;;;34.30;8.95;;;;;;;8.65;82.57;101344.66;5105800;28;20044;-82
2022/02/02 10:14:03;;;;;;;39.20;9.93;;;;;;;8.71;81.93;101351.16;5106542;28;20052;-82
2022/02/02 10:16:42;;;;;;;42.72;9.43;;;;;;;8.63;81.83;101352.63;5105717;28;20071;-82
2022/02/02 10:19:17;;;;;;;30.38;8.15;;;;;;;8.60;81.18;101363.31;5108152;28;20047;-83
2022/02/02 10:21:45;;;;;;;36.65;8.50;;;;;;;8.54;81.97;101360.38;5107660;28;20079;-82
2022/02/02 10:24:13;;;;;;;31.25;7.80;;;;;;;8.50;81.13;101357.22;5101579;28;20056;-82
2022/02/02 10:26:47;;;;;;;37.97;8.02;;;;;;;8.58;81.45;101367.00;5104771;28;20052;-82
2022/02/02 10:29:16;;;;;;;39.00;9.02;;;;;;;8.59;81.13;101366.88;5102355;28;20119;-83
2022/02/02 10:31:44;;;;;;;38.40;9.30;;;;;;;8.48;82.37;101371.31;5103348;28;20126;-83
2022/02/02 10:34:13;;;;;;;42.78;10.40;;;;;;;8.43;83.62;101373.47;5102404;28;20048;-82
2022/02/02 10:36:40;;;;;;;41.17;8.70;;;;;;;8.47;83.68;101374.88;5111753;22;20052;-80
2022/02/02 10:42:44;;;;;;;38.85;8.40;;;;;;;8.49;83.03;101378.19;4989379;28;20571;-81
2022/02/02 10:49:38;;;;;;;35.45;8.02;;;;;;;8.54;81.56;101371.63;4950094;29;20542;-81
2022/02/02 10:53:09;;;;;;;40.75;8.90;;;;;;;8.54;81.27;101358.59;4987779;28;20077;-81
2022/02/02 11:08:30;;;;;;;39.83;9.95;;;;;;;9.49;78.91;101384.59;4994614;28;20064;-84
2022/02/02 11:11:43;;;;;;;43.22;8.35;;;;;;;9.37;79.59;101396.94;5017422;28;20080;-81
2022/02/02 11:14:59;;;;;;;35.97;8.63;;;;;;;9.42;80.15;101386.94;5021925;28;20121;-82
2022/02/02 11:21:58;;;;;;;42.53;9.20;;;;;;;8.94;80.15;101389.25;5015543;28;20428;-82
2022/02/02 11:35:59;;;;;;;40.08;9.40;;;;;;;9.09;78.85;101394.97;4840675;29;20140;-82
2022/02/02 11:39:19;;;;;;;33.15;9.02;;;;;;;9.07;79.58;101391.66;4942475;28;20050;-82
2022/02/02 12:49:23;;;;;;;36.25;7.63;;;;;;;8.49;76.69;101388.63;4982340;28;20050;-81
2022/02/02 13:01:07;;;;;;;33.13;7.55;;;;;;;8.63;75.52;101398.75;5049459;28;20042;-79
2022/02/02 13:04:23;;;;;;;23.88;6.60;;;;;;;8.46;76.08;101383.66;5044229;28;20051;-80
2022/02/02 13:09:53;;;;;;;23.48;8.02;;;;;;;8.57;76.33;101402.69;5029677;28;20050;-82
2022/02/02 13:12:35;;;;;;;32.53;7.30;;;;;;;8.60;76.18;101422.47;5042923;28;20048;-81
2022/02/02 13:15:13;;;;;;;30.33;8.13;;;;;;;8.44;76.03;101385.56;5040132;28;20056;-82
2022/02/02 13:17:54;;;;;;;28.55;8.25;;;;;;;8.47;75.50;101388.75;5040336;28;20057;-82
2022/02/02 13:27:21;;;;;;;28.33;6.82;;;;;;;8.63;74.77;101424.84;5024226;28;20045;-80
2022/02/02 13:29:59;;;;;;;22.60;6.50;;;;;;;8.60;75.56;101407.66;5046618;28;20063;-81
2022/02/02 13:32:37;;;;;;;22.35;6.43;;;;;;;8.56;75.16;101395.81;5048115;28;20075;-81
2022/02/02 13:38:02;;;;;;;20.85;6.13;;;;;;;8.56;75.78;101401.03;5033397;28;20109;-81
2022/02/02 13:43:50;;;;;;;23.58;5.55;;;;;;;8.50;75.68;101383.28;5044392;28;20132;-81
2022/02/02 13:46:40;;;;;;;18.45;5.88;;;;;;;8.72;75.18;101399.78;5045511;28;20053;-80
2022/02/02 13:49:28;;;;;;;25.30;6.28;;;;;;;8.91;74.48;101400.78;5046849;28;20045;-83
2022/02/02 13:52:23;;;;;;;28.08;6.53;;;;;;;8.92;74.39;101399.00;5047862;28;20041;-81
2022/02/02 13:55:08;;;;;;;23.00;6.47;;;;;;;8.74;74.27;101388.28;5047178;28;20049;-81
2022/02/02 13:58:03;;;;;;;22.40;5.85;;;;;;;8.83;73.96;101408.41;5042186;28;20056;-83
2022/02/02 14:00:36;;;;;;;20.15;6.60;;;;;;;8.77;74.69;101393.25;5045779;28;20041;-82
2022/02/02 14:11:08;;;;;;;26.58;7.03;;;;;;;8.91;75.09;101418.22;4936980;28;20055;-82
2022/02/02 14:31:10;;;;;;;26.23;6.95;;;;;;;8.44;75.99;101464.63;5042784;28;20092;-82
2022/02/02 14:33:38;;;;;;;23.05;6.00;;;;;;;8.45;76.20;101461.06;5038242;28;20080;-81
2022/02/02 14:36:08;;;;;;;21.80;5.80;;;;;;;8.34;76.44;101468.09;5043640;28;20049;-81
2022/02/02 14:38:41;;;;;;;28.88;7.55;;;;;;;8.24;76.60;101471.38;5043466;28;20054;-82
2022/02/02 14:41:18;;;;;;;21.80;6.32;;;;;;;8.15;76.52;101477.31;5041743;28;20570;-82
2022/02/02 14:43:55;;;;;;;26.13;6.50;;;;;;;8.23;76.30;101464.50;5040550;28;20057;-82
2022/02/02 14:46:33;;;;;;;18.17;6.13;;;;;;;8.22;76.48;101473.28;5042879;28;20389;-82
2022/02/02 14:49:07;;;;;;;21.00;6.13;;;;;;;8.22;76.50;101468.06;5042618;28;20061;-83
2022/02/02 14:54:52;;;;;;;21.45;5.72;;;;;;;8.14;77.52;101493.91;4980243;28;20108;-82
2022/02/02 15:27:39;;;;;;;18.33;5.38;;;;;;;8.16;77.83;101481.56;5006141;28;20045;-82
2022/02/02 15:30:23;;;;;;;20.23;6.07;;;;;;;8.11;77.72;101465.47;5037679;28;20052;-82
2022/02/02 15:33:11;;;;;;;27.60;6.57;;;;;;;8.23;77.90;101482.75;5038164;28;20053;-82
2022/02/02 15:36:01;;;;;;;21.60;5.75;;;;;;;8.11;78.74;101478.50;5038144;28;20057;-83
2022/02/02 15:38:43;;;;;;;33.03;6.88;;;;;;;7.95;79.01;101467.63;5039241;28;20111;-82
2022/02/02 15:41:21;;;;;;;23.58;7.80;;;;;;;8.01;79.13;101487.19;5036375;28;20045;-83
2022/02/02 15:44:59;;;;;;;28.45;7.20;;;;;;;7.93;79.38;101472.94;5037378;28;20064;-83
2022/02/02 15:56:51;;;;;;;19.55;6.30;;;;;;;7.76;80.13;101483.81;5038215;28;20563;-82
2022/02/02 15:59:49;;;;;;;24.13;6.25;;;;;;;7.74;80.63;101490.09;5048803;28;20029;-82
2022/02/02 16:05:44;;;;;;;26.95;6.82;;;;;;;7.55;80.95;101480.25;5039425;28;20103;-82
2022/02/02 16:08:24;;;;;;;22.70;6.75;;;;;;;7.47;80.88;101473.03;5041963;28;20049;-83
2022/02/02 16:11:02;;;;;;;27.20;6.22;;;;;;;7.36;81.46;101474.78;5041096;28;20080;-83
2022/02/02 16:16:43;;;;;;;29.95;6.30;;;;;;;7.21;82.50;101481.94;5035548;28;20045;-83
2022/02/02 16:19:18;;;;;;;25.30;6.15;;;;;;;7.31;83.02;101503.75;5043156;28;20104;-83
2022/02/02 16:25:00;;;;;;;34.75;7.32;;;;;;;7.29;83.32;101516.03;5042663;28;20505;-83
2022/02/02 16:36:20;;;;;;;28.17;7.15;;;;;;;7.14;84.99;101506.75;4982547;28;20057;-84
2022/02/02 16:39:00;;;;;;;35.80;8.17;;;;;;;7.08;85.15;101502.03;5071963;22;20041;-84
2022/02/02 16:44:12;;;;;;;23.02;7.90;;;;;;;6.98;86.27;101510.50;5059370;28;20107;-83
2022/02/02 16:46:38;;;;;;;31.90;8.07;;;;;;;6.84;87.08;101505.44;5053555;28;20037;-84
2022/02/02 16:49:05;;;;;;;27.30;8.57;;;;;;;6.96;87.18;101512.38;5046789;28;20092;-84
2022/02/02 16:51:32;;;;;;;27.45;8.05;;;;;;;6.79;87.37;101501.50;5048440;28;20564;-84
2022/02/02 16:54:02;;;;;;;30.63;8.15;;;;;;;6.92;87.29;101513.53;5050072;28;20118;-84
2022/02/02 16:56:43;;;;;;;27.80;8.10;;;;;;;6.73;88.09;101507.97;5051807;28;20499;-83
2022/02/02 17:32:14;;;;;;;34.17;11.82;;;;;;;5.92;93.35;101538.81;5043290;28;20042;-85
2022/02/02 17:34:46;;;;;;;28.05;12.10;;;;;;;5.95;93.71;101536.00;5046064;28;20054;-84
2022/02/02 17:37:34;;;;;;;26.08;12.10;;;;;;;6.02;94.34;101539.88;5052696;28;20117;-84
2022/02/02 17:40:05;;;;;;;31.35;13.07;;;;;;;6.12;94.85;101540.91;5052383;28;20049;-84
2022/02/02 17:45:33;;;;;;;28.60;12.95;;;;;;;6.31;95.09;101538.69;5049392;28;20045;-83
2022/02/02 18:18:50;;;;;;;86.03;32.53;;;;;;;6.74;95.83;101553.88;5057115;28;20103;-83
2022/02/02 18:21:19;;;;;;;46.47;20.73;;;;;;;6.73;95.78;101559.19;5035560;28;20084;-83
2022/02/02 18:24:03;;;;;;;39.53;17.10;;;;;;;6.73;95.70;101565.22;5036563;28;20049;-84
2022/02/02 18:26:43;;;;;;;33.17;15.93;;;;;;;6.90;95.45;101567.44;5040575;28;20060;-83
2022/02/02 18:29:18;;;;;;;32.75;14.27;;;;;;;6.91;95.40;101565.69;5040997;28;20067;-85
2022/02/02 18:34:45;;;;;;;32.13;13.57;;;;;;;6.87;95.32;101567.66;5039627;28;20053;-83
2022/02/02 18:43:26;;;;;;;39.25;18.90;;;;;;;6.79;95.98;101584.75;5039490;28;20053;-83
2022/02/02 18:49:00;;;;;;;32.80;17.15;;;;;;;6.77;96.08;101592.66;5039378;28;20105;-84
2022/02/02 18:51:58;;;;;;;36.10;17.65;;;;;;;6.84;96.15;101583.50;5040086;28;20060;-84
2022/02/02 18:54:37;;;;;;;27.63;14.93;;;;;;;6.96;95.88;101585.22;5039378;28;20081;-84
2022/02/02 19:00:18;;;;;;;27.95;13.77;;;;;;;7.18;95.84;101565.44;5030080;28;20045;-84
2022/02/02 19:55:45;;;;;;;25.52;14.43;;;;;;;7.25;96.09;101554.50;5043739;28;20054;-84
2022/02/02 20:04:50;;;;;;;26.85;16.23;;;;;;;7.19;95.77;101538.47;5046375;28;20155;-84
2022/02/02 20:10:14;;;;;;;;;;;;;;;;;;;;;
2022/02/02 20:12:53;;;;;;;26.63;16.75;;;;;;;7.41;95.92;101577.63;4991943;28;20050;-82
2022/02/02 20:15:33;;;;;;;27.13;16.58;;;;;;;7.36;95.49;101547.66;4988972;28;20104;-84
2022/02/02 20:18:15;;;;;;;30.15;16.83;;;;;;;7.44;95.62;101572.22;4998530;28;20400;-85
2022/02/02 20:20:48;;;;;;;29.33;16.90;;;;;;;7.45;95.65;101571.25;5012919;28;20096;-83
2022/02/02 20:23:17;;;;;;;29.95;16.23;;;;;;;7.33;95.91;101551.31;5023866;28;20113;-84
2022/02/02 20:25:54;;;;;;;29.73;16.20;;;;;;;7.36;95.91;101564.13;5015236;28;20054;-83
2022/02/02 20:28:26;;;;;;;29.20;16.50;;;;;;;7.34;96.18;101573.81;5010249;28;20140;-85
2022/02/02 20:30:58;;;;;;;25.95;15.80;;;;;;;7.40;96.10;101578.59;4996313;28;20137;-84
2022/02/02 20:33:27;;;;;;;27.30;16.52;;;;;;;7.38;96.23;101575.25;5019000;28;20052;-85
2022/02/02 20:36:09;;;;;;;28.77;17.48;;;;;;;7.36;96.02;101556.31;5020683;28;20053;-84
2022/02/02 20:39:01;;;;;;;29.20;17.95;;;;;;;7.44;96.04;101558.34;5021521;28;20049;-85
2022/02/02 20:44:23;;;;;;;33.55;18.27;;;;;;;7.53;95.78;101555.06;5023822;28;20071;-84
2022/02/02 21:01:03;;;;;;;32.47;18.02;;;;;;;7.52;96.78;101580.28;5005756;28;20076;-81
2022/02/02 21:03:40;;;;;;;32.25;18.15;;;;;;;7.47;96.60;101582.41;5006638;28;20077;-82
2022/02/02 21:06:21;;;;;;;31.55;17.50;;;;;;;7.46;96.59;101577.31;5010941;28;20061;-81
2022/02/02 21:09:07;;;;;;;33.42;19.10;;;;;;;7.49;96.46;101575.31;5013593;28;20057;-80
2022/02/02 21:14:21;;;;;;;33.25;18.60;;;;;;;7.39;96.47;101571.72;5012074;28;20053;-82
2022/02/02 21:16:48;;;;;;;34.28;20.15;;;;;;;7.46;96.44;101580.75;5012985;28;20046;-83
2022/02/02 21:19:24;;;;;;;35.15;20.20;;;;;;;7.58;96.37;101600.66;5013545;28;20050;-83
2022/02/02 21:21:55;;;;;;;35.13;22.05;;;;;;;7.66;96.22;101595.72;5006397;28;20112;-83
2022/02/02 21:27:19;;;;;;;35.42;21.25;;;;;;;7.67;95.99;101593.94;5022791;28;20434;-82
2022/02/02 21:29:53;;;;;;;32.17;19.48;;;;;;;7.50;96.20;101576.13;4983582;28;20055;-82
2022/02/02 21:32:23;;;;;;;37.00;22.77;;;;;;;7.66;96.34;101581.84;4984294;28;20133;-82
2022/02/02 21:34:51;;;;;;;38.28;21.55;;;;;;;7.51;96.37;101572.59;4983756;28;20054;-83
2022/02/02 21:37:21;;;;;;;34.90;21.45;;;;;;;7.55;96.40;101590.47;4984366;28;20089;-81
2022/02/02 21:40:03;;;;;;;37.17;22.17;;;;;;;7.54;96.79;101583.63;4982837;28;20154;-83
2022/02/02 21:42:30;;;;;;;35.50;21.58;;;;;;;7.41;96.68;101567.22;4982651;28;20473;-83
2022/02/02 21:44:57;;;;;;;32.25;20.98;;;;;;;7.41;96.89;101577.63;4991043;28;20058;-83
2022/02/02 21:47:26;;;;;;;35.30;22.55;;;;;;;7.45;96.96;101573.88;5002399;28;20054;-82
2022/02/02 21:50:06;;;;;;;37.00;22.17;;;;;;;7.42;97.04;101584.50;5003123;28;20101;-81
2022/02/02 21:52:34;;;;;;;33.63;21.38;;;;;;;7.62;97.25;101596.03;5000698;28;20042;-83
2022/02/02 21:55:04;;;;;;;33.72;20.67;;;;;;;7.50;97.84;101570.94;5001507;28;20149;-79
2022/02/02 21:57:33;;;;;;;39.40;23.20;;;;;;;7.50;97.82;101576.97;4999165;28;20058;-81
2022/02/02 22:00:01;;;;;;;38.63;23.15;;;;;;;7.53;98.16;101587.16;4999173;28;20461;-82
2022/02/02 22:02:32;;;;;;;38.72;23.17;;;;;;;7.58;98.32;101589.41;5001368;28;20070;-82
2022/02/02 22:04:59;;;;;;;39.55;24.08;;;;;;;7.56;98.54;101592.13;4999912;28;20110;-83
2022/02/02 22:07:26;;;;;;;40.92;23.17;;;;;;;7.49;98.92;101577.91;4999581;28;20140;-83
2022/02/02 22:09:56;;;;;;;40.72;23.70;;;;;;;7.51;99.06;101591.66;5000004;28;20095;-82
2022/02/02 22:12:27;;;;;;;44.38;24.00;;;;;;;7.54;99.51;101594.03;4999981;28;20633;-82
2022/02/02 22:14:54;;;;;;;41.15;24.20;;;;;;;7.67;99.39;101588.72;4995254;28;20081;-82
2022/02/02 22:17:23;;;;;;;41.00;24.42;;;;;;;7.61;99.15;101595.22;4998969;28;20063;-83
2022/02/02 22:19:53;;;;;;;41.70;23.88;;;;;;;7.60;99.68;101593.56;4998633;28;20077;-83
2022/02/02 22:22:20;;;;;;;42.83;24.05;;;;;;;7.55;99.85;101595.69;4999146;28;20046;-83
2022/02/02 22:24:47;;;;;;;45.03;24.08;;;;;;;7.55;100.00;101592.25;4999021;28;20373;-82
2022/02/02 22:27:15;;;;;;;41.85;23.63;;;;;;;7.55;100.00;101590.47;4998243;28;20054;-83
2022/02/02 22:29:42;;;;;;;43.55;24.88;;;;;;;7.50;100.00;101589.16;4998456;28;20073;-82
2022/02/02 22:32:08;;;;;;;42.75;23.90;;;;;;;7.60;100.00;101592.72;4995586;28;20055;-83
2022/02/02 22:34:35;;;;;;;46.53;25.05;;;;;;;7.54;100.00;101582.78;4999500;28;20061;-82
2022/02/02 23:04:43;;;;;;;47.45;24.38;;;;;;;7.61;100.00;101569.16;4812163;29;20062;-82
2022/02/02 23:13:09;;;;;;;44.85;23.92;;;;;;;7.35;100.00;101549.44;5034885;28;20395;-82
2022/02/02 23:15:43;;;;;;;51.40;24.30;;;;;;;7.54;100.00;101570.59;5043123;28;20699;-82
2022/02/02 23:18:21;;;;;;;47.85;25.35;;;;;;;7.43;100.00;101538.47;5041926;28;20111;-81